Time;durP1;ratioP1;P1;durP2;ratioP2;P2;SDS_P1;SDS_P2;PMS_P1;PMS_P2;Temp;Humidity;BMP_temperature;BMP_pressure;BME280_temperature;BME280_humidity;BME280_pressure;Samples;Min_cycle;Max_cycle;Signal;HPM_P1;HPM_P2
2022/08/30 00:02:05;;;;;;;12.23;4.05;;;;;;;18.97;70.18;102078.84;5076771;28;20051;-46
2022/08/30 00:04:30;;;;;;;9.90;4.53;;;;;;;18.95;70.40;102080.56;5072809;28;20028;-49
2022/08/30 00:06:56;;;;;;;7.53;3.90;;;;;;;18.99;70.23;102078.91;5073384;28;20043;-46
2022/08/30 00:09:21;;;;;;;10.65;4.57;;;;;;;18.94;70.17;102075.34;5070507;28;20067;-49
2022/08/30 00:11:46;;;;;;;8.63;4.00;;;;;;;18.96;70.65;102066.69;5070257;28;20028;-46
2022/08/30 00:14:12;;;;;;;8.90;3.90;;;;;;;18.87;70.50;102069.19;5069289;28;20504;-48
2022/08/30 00:16:37;;;;;;;9.52;4.50;;;;;;;18.94;70.61;102068.41;5070506;28;20117;-49
2022/08/30 00:19:03;;;;;;;11.05;4.50;;;;;;;18.85;70.85;102068.28;5073929;28;20028;-48
2022/08/30 00:21:28;;;;;;;8.65;4.00;;;;;;;18.87;70.76;102066.59;5070445;28;20060;-47
2022/08/30 00:23:53;;;;;;;8.15;3.95;;;;;;;18.84;71.10;102068.25;5071358;28;20040;-46
2022/08/30 00:26:19;;;;;;;8.98;4.32;;;;;;;18.80;70.99;102067.31;5070810;28;21013;-50
2022/08/30 00:28:44;;;;;;;8.40;3.95;;;;;;;18.82;71.14;102072.59;5070236;28;20037;-50
2022/08/30 00:31:10;;;;;;;7.90;3.83;;;;;;;18.83;71.11;102076.94;5072424;28;20028;-48
2022/08/30 00:33:35;;;;;;;8.82;4.20;;;;;;;18.78;71.20;102069.06;5066149;28;20064;-48
2022/08/30 00:36:01;;;;;;;10.63;4.18;;;;;;;18.70;71.38;102068.09;5060866;28;20472;-48
2022/08/30 00:38:26;;;;;;;7.35;4.15;;;;;;;18.72;71.25;102064.63;5071233;28;20066;-47
2022/08/30 00:40:52;;;;;;;9.25;3.75;;;;;;;18.74;71.59;102070.72;5072904;28;20035;-50
2022/08/30 00:43:22;;;;;;;10.45;3.97;;;;;;;18.75;71.57;102071.63;5074005;28;20035;-49
2022/08/30 00:45:49;;;;;;;7.10;3.78;;;;;;;18.69;71.49;102069.81;5070385;28;20035;-50
2022/08/30 00:48:14;;;;;;;8.85;3.85;;;;;;;18.72;71.49;102072.44;5069697;28;20032;-49
2022/08/30 00:50:50;;;;;;;8.88;3.95;;;;;;;18.71;71.23;102065.50;5074408;28;20396;-50
2022/08/30 00:53:23;;;;;;;10.38;3.90;;;;;;;18.67;71.73;102068.03;5068993;28;20495;-50
2022/08/30 00:55:49;;;;;;;6.35;3.67;;;;;;;18.68;71.58;102070.63;5073749;28;20431;-49
2022/08/30 00:58:23;;;;;;;8.68;3.88;;;;;;;18.68;71.62;102073.25;5071416;28;20044;-47
2022/08/30 01:00:52;;;;;;;6.93;3.80;;;;;;;18.64;71.88;102078.38;5069610;28;20035;-50
2022/08/30 01:03:19;;;;;;;8.57;4.30;;;;;;;18.65;71.87;102075.78;5071913;28;20024;-50
2022/08/30 01:05:48;;;;;;;9.75;4.05;;;;;;;18.63;72.15;102074.03;5068695;28;20150;-50
2022/08/30 01:08:14;;;;;;;9.93;4.00;;;;;;;18.62;72.34;102070.53;5070244;28;20062;-49
2022/08/30 01:10:40;;;;;;;8.43;3.85;;;;;;;18.59;72.59;102082.66;5071466;28;20047;-48
2022/08/30 01:13:08;;;;;;;7.38;3.97;;;;;;;18.57;72.68;102082.63;5069474;28;20542;-50
2022/08/30 01:15:34;;;;;;;9.63;3.65;;;;;;;18.59;72.23;102083.53;5073212;28;20046;-47
2022/08/30 01:18:01;;;;;;;7.10;3.97;;;;;;;18.59;72.29;102090.47;5070124;28;20028;-49
2022/08/30 01:20:34;;;;;;;7.00;3.70;;;;;;;18.61;72.45;102083.53;5072722;28;20517;-49
2022/08/30 01:23:06;;;;;;;8.45;3.85;;;;;;;18.60;72.26;102089.59;5069010;28;20035;-50
2022/08/30 01:25:35;;;;;;;4.85;3.72;;;;;;;18.59;72.46;102086.13;5069093;28;20035;-48
2022/08/30 01:28:07;;;;;;;8.50;3.70;;;;;;;18.51;72.67;102090.34;5067660;28;20048;-46
2022/08/30 01:30:37;;;;;;;8.48;3.88;;;;;;;18.52;72.54;102083.41;5074573;28;20046;-49
2022/08/30 01:33:03;;;;;;;7.53;4.10;;;;;;;18.54;72.70;102092.13;5072761;28;20513;-50
2022/08/30 01:35:35;;;;;;;8.25;3.75;;;;;;;18.54;72.88;102098.19;5075949;28;20173;-50
2022/08/30 01:38:01;;;;;;;10.68;4.18;;;;;;;18.47;72.97;102101.56;5072942;28;20020;-48
2022/08/30 01:40:26;;;;;;;9.15;3.75;;;;;;;18.45;73.17;102093.75;5074367;28;20058;-50
2022/08/30 01:42:52;;;;;;;8.20;3.90;;;;;;;18.45;73.02;102087.66;5069662;28;20085;-50
2022/08/30 01:45:17;;;;;;;6.82;3.67;;;;;;;18.46;73.26;102089.41;5069948;28;20033;-47
2022/08/30 01:47:42;;;;;;;9.35;3.83;;;;;;;18.43;73.15;102081.53;5069642;28;20509;-49
2022/08/30 01:50:09;;;;;;;5.15;3.70;;;;;;;18.40;73.17;102089.31;5070990;28;20488;-49
2022/08/30 01:52:35;;;;;;;8.15;3.75;;;;;;;18.37;73.42;102077.09;5066521;28;20052;-49
2022/08/30 01:55:02;;;;;;;10.63;3.92;;;;;;;18.39;73.19;102087.56;5076523;28;20028;-49
2022/08/30 01:57:27;;;;;;;7.97;4.03;;;;;;;18.37;73.34;102084.03;5069811;28;20056;-47
2022/08/30 01:59:53;;;;;;;6.22;3.65;;;;;;;18.36;73.06;102085.78;5069060;28;20389;-48
2022/08/30 02:02:23;;;;;;;8.00;4.07;;;;;;;18.35;73.48;102083.16;5070360;28;20034;-48
2022/08/30 02:04:50;;;;;;;6.05;3.80;;;;;;;18.30;73.44;102077.00;5067961;28;20524;-47
2022/08/30 02:07:16;;;;;;;6.75;3.97;;;;;;;18.30;73.25;102079.59;5069206;28;20028;-47
2022/08/30 02:09:41;;;;;;;6.60;4.00;;;;;;;18.27;73.35;102084.78;5072004;28;20072;-50
2022/08/30 02:12:07;;;;;;;6.85;3.72;;;;;;;18.23;73.56;102073.41;5070979;28;20043;-49
2022/08/30 02:14:34;;;;;;;7.45;4.20;;;;;;;18.18;73.96;102073.34;5072154;28;20036;-49
2022/08/30 02:17:01;;;;;;;6.22;4.00;;;;;;;18.17;73.85;102075.94;5068555;28;20153;-50
2022/08/30 02:19:27;;;;;;;7.93;4.47;;;;;;;18.17;73.81;102071.59;5071999;28;20516;-50
2022/08/30 02:21:52;;;;;;;8.23;3.88;;;;;;;18.16;73.80;102063.78;5070649;28;20032;-50
2022/08/30 02:24:18;;;;;;;6.22;4.18;;;;;;;18.13;73.81;102067.19;5074106;28;20020;-47
2022/08/30 02:26:43;;;;;;;8.38;3.90;;;;;;;18.14;74.23;102062.84;5069699;28;20028;-50
2022/08/30 02:29:09;;;;;;;6.78;4.30;;;;;;;18.15;74.01;102068.09;5068958;28;20017;-48
2022/08/30 02:31:34;;;;;;;7.13;4.20;;;;;;;18.14;74.00;102070.66;5068926;28;20162;-50
2022/08/30 02:33:59;;;;;;;7.10;4.13;;;;;;;18.13;73.92;102063.69;5071842;28;20035;-48
2022/08/30 02:36:25;;;;;;;9.10;4.28;;;;;;;18.13;74.04;102066.31;5072435;28;20036;-49
2022/08/30 02:38:52;;;;;;;7.60;4.20;;;;;;;18.12;74.11;102072.38;5069694;28;20036;-48
2022/08/30 02:41:18;;;;;;;6.82;4.18;;;;;;;18.12;74.17;102064.56;5071425;28;20033;-47
2022/08/30 02:43:44;;;;;;;7.55;4.68;;;;;;;18.09;74.20;102059.31;5066338;28;20497;-47
2022/08/30 02:46:09;;;;;;;7.22;4.30;;;;;;;18.08;74.28;102061.06;5071872;28;20029;-46
2022/08/30 02:48:35;;;;;;;5.18;4.18;;;;;;;18.09;73.73;102062.81;5070145;28;20032;-46
2022/08/30 02:51:06;;;;;;;5.97;4.18;;;;;;;18.10;74.12;102063.66;5072655;28;20480;-48
2022/08/30 02:53:31;;;;;;;10.43;4.60;;;;;;;18.03;74.40;102061.81;5068862;28;20060;-48
2022/08/30 02:55:57;;;;;;;7.15;4.40;;;;;;;18.04;74.44;102064.44;5071944;28;20071;-46
2022/08/30 02:58:23;;;;;;;10.65;4.68;;;;;;;18.02;74.45;102060.94;5070272;28;20028;-48
2022/08/30 03:00:48;;;;;;;8.60;4.80;;;;;;;18.05;74.36;102062.72;5063870;28;20472;-47
2022/08/30 03:03:13;;;;;;;6.05;4.55;;;;;;;18.03;74.68;102052.28;5070854;28;20083;-46
2022/08/30 03:05:39;;;;;;;8.23;4.85;;;;;;;17.98;74.68;102048.72;5070420;28;20041;-47
2022/08/30 03:08:04;;;;;;;9.95;5.18;;;;;;;17.91;74.77;102042.56;5068237;28;20101;-50
2022/08/30 03:10:30;;;;;;;6.90;4.68;;;;;;;17.93;74.53;102040.84;5072721;28;20020;-50
2022/08/30 03:12:56;;;;;;;6.18;4.85;;;;;;;17.92;74.54;102040.81;5070933;28;20024;-48
2022/08/30 03:15:24;;;;;;;6.80;5.05;;;;;;;17.92;74.53;102038.22;5068700;28;20082;-49
2022/08/30 03:17:50;;;;;;;8.63;5.07;;;;;;;17.91;74.80;102044.28;5069821;28;20025;-50
2022/08/30 03:20:15;;;;;;;7.63;4.95;;;;;;;17.85;75.04;102037.25;5074853;28;20113;-47
2022/08/30 03:22:41;;;;;;;6.20;5.05;;;;;;;17.90;74.99;102045.13;5068219;28;20036;-48
2022/08/30 03:25:07;;;;;;;8.80;5.10;;;;;;;17.91;74.75;102042.56;5071332;28;20040;-49
2022/08/30 03:27:32;;;;;;;7.97;5.20;;;;;;;17.84;75.20;102051.09;5075325;28;20447;-47
2022/08/30 03:29:58;;;;;;;10.02;5.55;;;;;;;17.87;75.07;102051.16;5071960;28;20020;-48
2022/08/30 03:32:23;;;;;;;8.60;5.68;;;;;;;17.87;74.98;102047.66;5072238;28;20028;-48
2022/08/30 03:34:49;;;;;;;7.10;4.95;;;;;;;17.86;74.95;102048.53;5073299;28;20035;-46
2022/08/30 03:37:14;;;;;;;5.53;5.03;;;;;;;17.83;74.96;102053.66;5071893;28;20032;-49
2022/08/30 03:39:40;;;;;;;9.25;5.95;;;;;;;17.85;74.82;102059.78;5074447;28;20102;-49
2022/08/30 03:42:05;;;;;;;6.93;5.43;;;;;;;17.80;75.02;102058.81;5069730;28;20439;-46
2022/08/30 03:44:31;;;;;;;6.07;5.47;;;;;;;17.78;75.08;102056.22;5073109;28;20039;-50
2022/08/30 03:46:56;;;;;;;8.40;5.45;;;;;;;17.79;75.12;102052.75;5072042;28;20034;-50
2022/08/30 03:49:23;;;;;;;6.55;5.53;;;;;;;17.79;75.45;102049.28;5075951;28;20028;-50
2022/08/30 03:51:49;;;;;;;10.50;5.85;;;;;;;17.74;75.68;102053.53;5071882;28;20560;-49
2022/08/30 03:54:15;;;;;;;7.63;6.07;;;;;;;17.68;75.67;102054.25;5073588;28;20028;-50
2022/08/30 03:56:40;;;;;;;10.23;6.00;;;;;;;17.72;75.53;102052.63;5071883;28;20094;-49
2022/08/30 03:59:06;;;;;;;8.75;6.45;;;;;;;17.64;75.75;102044.63;5073198;28;20039;-49
2022/08/30 04:01:31;;;;;;;8.45;6.18;;;;;;;17.68;75.49;102042.13;5073306;28;20122;-49
2022/08/30 04:03:57;;;;;;;8.98;6.32;;;;;;;17.66;75.68;102048.16;5072578;28;20740;-48
2022/08/30 04:06:22;;;;;;;6.90;6.20;;;;;;;17.63;75.84;102048.97;5074044;28;20090;-46
2022/08/30 04:08:48;;;;;;;9.80;6.72;;;;;;;17.61;76.24;102048.06;5073222;28;20031;-48
2022/08/30 04:11:15;;;;;;;7.22;6.45;;;;;;;17.61;76.10;102048.06;5071087;28;20488;-47
2022/08/30 04:13:41;;;;;;;9.23;6.53;;;;;;;17.64;75.96;102055.91;5074084;28;20108;-50
2022/08/30 04:16:06;;;;;;;11.95;6.78;;;;;;;17.61;76.11;102055.00;5072861;28;20032;-49
2022/08/30 04:18:34;;;;;;;8.45;6.63;;;;;;;17.63;75.85;102053.28;5074654;28;20476;-49
2022/08/30 04:21:00;;;;;;;8.80;6.63;;;;;;;17.62;76.10;102056.75;5074281;28;20117;-49
2022/08/30 04:23:27;;;;;;;9.65;6.85;;;;;;;17.56;76.04;102052.31;5070262;28;20036;-49
2022/08/30 04:25:53;;;;;;;9.77;6.75;;;;;;;17.57;76.15;102056.66;5074935;28;20020;-50
2022/08/30 04:28:18;;;;;;;8.35;7.25;;;;;;;17.49;76.36;102052.16;5074761;28;20043;-50
2022/08/30 04:30:44;;;;;;;9.00;6.80;;;;;;;17.51;76.23;102059.13;5074347;28;20107;-49
2022/08/30 04:33:11;;;;;;;8.68;7.10;;;;;;;17.57;75.76;102060.97;5068915;28;20039;-51
2022/08/30 04:35:43;;;;;;;9.13;7.30;;;;;;;17.50;76.51;102064.31;5068056;28;20035;-46
2022/08/30 04:38:10;;;;;;;9.70;7.20;;;;;;;17.48;76.50;102069.50;5071615;28;20480;-50
2022/08/30 04:40:36;;;;;;;11.70;7.57;;;;;;;17.50;76.31;102061.72;5076827;28;20519;-50
2022/08/30 04:43:02;;;;;;;10.35;7.90;;;;;;;17.45;76.42;102065.94;5070475;28;20168;-49
2022/08/30 04:45:27;;;;;;;9.98;7.40;;;;;;;17.45;76.49;102064.22;5073795;28;21090;-49
2022/08/30 04:47:53;;;;;;;10.10;7.90;;;;;;;17.43;76.55;102063.34;5075572;28;20037;-48
2022/08/30 04:50:19;;;;;;;9.50;8.10;;;;;;;17.39;76.89;102069.31;5073976;28;20024;-47
2022/08/30 04:52:45;;;;;;;9.75;7.82;;;;;;;17.36;76.91;102071.88;5071500;28;20031;-50
2022/08/30 04:55:11;;;;;;;9.75;7.30;;;;;;;17.41;76.98;102078.00;5074907;28;20040;-52
2022/08/30 04:57:39;;;;;;;11.75;8.13;;;;;;;17.40;76.82;102071.94;5073904;28;20425;-49
2022/08/30 05:00:07;;;;;;;11.77;7.97;;;;;;;17.30;77.24;102083.03;5074589;28;20032;-50
2022/08/30 05:02:33;;;;;;;12.05;8.23;;;;;;;17.32;77.04;102088.25;5070567;28;20747;-50
2022/08/30 05:07:44;;;;;;;11.43;8.57;;;;;;;17.32;77.10;102080.44;5072591;28;20447;-50
2022/08/30 05:10:09;;;;;;;10.05;8.45;;;;;;;17.29;77.17;102080.38;5072804;28;20028;-48
2022/08/30 05:12:35;;;;;;;13.15;8.57;;;;;;;17.25;77.82;102075.97;5072143;28;20028;-50
2022/08/30 05:15:00;;;;;;;10.13;8.88;;;;;;;17.25;77.43;102078.56;5072555;28;20024;-50
2022/08/30 05:17:25;;;;;;;12.35;8.60;;;;;;;17.24;77.45;102085.50;5069548;28;20515;-49
2022/08/30 05:19:51;;;;;;;9.10;8.20;;;;;;;17.23;77.36;102083.75;5076186;28;20036;-51
2022/08/30 05:22:16;;;;;;;11.50;8.23;;;;;;;17.29;77.65;102082.97;5072692;28;20078;-49
2022/08/30 05:24:41;;;;;;;14.40;8.50;;;;;;;17.26;77.48;102093.31;5071440;28;20031;-49
2022/08/30 05:27:07;;;;;;;10.35;8.45;;;;;;;17.13;77.85;102090.47;5073163;28;20028;-49
2022/08/30 05:29:33;;;;;;;9.90;8.90;;;;;;;17.20;77.83;102093.19;5068856;28;20028;-50
2022/08/30 05:31:58;;;;;;;11.07;8.45;;;;;;;17.25;77.48;102105.44;5069751;28;20023;-49
2022/08/30 05:34:24;;;;;;;12.48;9.15;;;;;;;17.23;77.48;102101.03;5072219;28;20486;-47
2022/08/30 05:36:50;;;;;;;12.93;8.70;;;;;;;17.24;77.44;102097.63;5070331;28;20020;-48
2022/08/30 05:39:15;;;;;;;9.80;8.80;;;;;;;17.19;77.77;102099.25;5070677;28;20021;-50
2022/08/30 05:41:40;;;;;;;10.73;8.43;;;;;;;17.23;77.58;102098.44;5069708;28;20090;-50
2022/08/30 05:44:08;;;;;;;10.02;9.02;;;;;;;17.24;77.67;102102.81;5071823;28;20419;-47
2022/08/30 05:46:34;;;;;;;10.48;8.45;;;;;;;17.27;77.50;102110.66;5068751;28;20403;-49
2022/08/30 05:49:02;;;;;;;10.18;8.38;;;;;;;17.16;77.92;102106.09;5066612;28;20086;-48
2022/08/30 05:51:29;;;;;;;10.63;8.90;;;;;;;17.25;77.76;102109.75;5069903;28;20028;-49
2022/08/30 05:53:57;;;;;;;9.45;8.40;;;;;;;17.25;77.89;102104.56;5074669;28;20131;-50
2022/08/30 05:56:25;;;;;;;10.98;8.55;;;;;;;17.26;77.83;102112.38;5080786;28;20048;-49
2022/08/30 05:58:52;;;;;;;11.98;8.32;;;;;;;17.29;77.61;102115.06;5073581;28;20123;-50
2022/08/30 06:01:32;;;;;;;12.38;8.82;;;;;;;17.30;77.20;102105.53;5070829;28;20035;-49
2022/08/30 06:04:00;;;;;;;11.30;8.48;;;;;;;17.20;77.75;102112.25;5072672;28;20034;-50
2022/08/30 06:06:27;;;;;;;10.85;8.95;;;;;;;17.25;77.80;102110.63;5073406;28;20496;-50
2022/08/30 06:08:54;;;;;;;11.52;8.70;;;;;;;17.18;77.83;102107.88;5075533;28;20439;-46
2022/08/30 06:11:22;;;;;;;11.48;8.50;;;;;;;17.24;77.72;102105.41;5079841;28;20024;-50
2022/08/30 06:13:48;;;;;;;11.40;8.50;;;;;;;17.16;78.11;102111.31;5073909;28;20050;-47
2022/08/30 06:16:15;;;;;;;12.80;8.52;;;;;;;17.24;77.77;102108.03;5077579;28;20036;-46
2022/08/30 06:18:41;;;;;;;8.90;8.00;;;;;;;17.28;77.68;102105.50;5074712;28;20107;-49
2022/08/30 06:21:07;;;;;;;10.13;8.13;;;;;;;17.36;77.31;102109.13;5077100;28;20476;-47
2022/08/30 06:23:32;;;;;;;9.50;8.20;;;;;;;17.42;77.27;102098.84;5077309;28;20030;-50
2022/08/30 06:26:06;;;;;;;10.10;7.75;;;;;;;17.47;76.96;102106.72;5071343;28;20396;-47
2022/08/30 06:28:32;;;;;;;9.43;7.95;;;;;;;17.51;76.52;102100.75;5073677;28;20029;-50
2022/08/30 06:30:57;;;;;;;9.50;7.72;;;;;;;17.55;76.93;102102.56;5074976;28;20046;-50
2022/08/30 06:33:22;;;;;;;8.98;7.93;;;;;;;17.63;76.60;102105.31;5076768;28;20039;-50
2022/08/30 06:35:48;;;;;;;9.77;7.57;;;;;;;17.69;76.42;102100.22;5072138;28;20362;-51
2022/08/30 06:38:13;;;;;;;9.85;8.10;;;;;;;17.76;76.09;102104.72;5073055;28;20066;-50
2022/08/30 06:40:38;;;;;;;10.13;7.57;;;;;;;17.82;75.73;102099.63;5069758;28;20090;-48
2022/08/30 06:43:04;;;;;;;9.07;7.45;;;;;;;17.91;75.24;102097.19;5073910;28;20067;-50
2022/08/30 06:45:29;;;;;;;9.02;7.10;;;;;;;18.00;75.32;102096.47;5069566;28;20028;-50
2022/08/30 06:47:57;;;;;;;8.90;7.30;;;;;;;18.08;74.99;102097.50;5079404;28;20091;-50
2022/08/30 06:50:24;;;;;;;10.60;7.30;;;;;;;18.17;74.75;102092.41;5072798;28;20029;-50
2022/08/30 06:52:50;;;;;;;12.57;7.10;;;;;;;18.24;74.06;102093.41;5078289;28;20082;-49
2022/08/30 06:55:17;;;;;;;11.30;7.22;;;;;;;18.30;73.98;102097.81;5072029;28;20032;-50
2022/08/30 06:57:43;;;;;;;8.30;6.78;;;;;;;18.34;73.40;102097.91;5077687;28;20048;-50
2022/08/30 07:00:12;;;;;;;7.95;6.45;;;;;;;18.40;73.57;102094.53;5074484;28;20495;-50
2022/08/30 07:02:37;;;;;;;7.97;6.32;;;;;;;18.51;72.85;102102.50;5080863;28;20070;-45
2022/08/30 07:05:03;;;;;;;9.25;6.32;;;;;;;18.53;72.79;102100.78;5076169;28;20052;-48
2022/08/30 07:07:29;;;;;;;7.93;6.20;;;;;;;18.62;72.61;102096.56;5075787;28;20088;-49
2022/08/30 07:09:54;;;;;;;8.85;5.78;;;;;;;18.72;72.54;102100.22;5072468;28;20063;-50
2022/08/30 07:12:20;;;;;;;10.50;5.80;;;;;;;18.83;71.99;102105.59;5079778;28;20040;-50
2022/08/30 07:14:45;;;;;;;6.60;5.90;;;;;;;18.94;71.35;102104.03;5075811;28;20043;-49
2022/08/30 07:19:55;;;;;;;7.68;5.15;;;;;;;19.09;70.09;102109.41;5075935;28;20054;-49
2022/08/30 07:22:20;;;;;;;10.43;5.70;;;;;;;19.13;70.28;102105.13;5074080;28;20024;-50
2022/08/30 07:24:46;;;;;;;6.70;5.75;;;;;;;19.29;69.97;102115.78;5069747;28;20607;-50
2022/08/30 07:27:12;;;;;;;7.47;5.35;;;;;;;19.38;69.96;102121.94;5080907;28;20043;-50
2022/08/30 07:29:38;;;;;;;5.72;5.05;;;;;;;19.47;69.24;102122.03;5073230;28;20032;-48
2022/08/30 07:32:04;;;;;;;16.00;5.97;;;;;;;19.56;68.51;102120.41;5079071;28;20048;-45
2022/08/30 07:34:29;;;;;;;7.78;5.20;;;;;;;19.60;68.62;102118.75;5072013;28;20033;-48
2022/08/30 07:36:54;;;;;;;9.63;5.10;;;;;;;19.66;68.50;102124.06;5076598;28;20101;-46
2022/08/30 07:39:20;;;;;;;7.57;5.25;;;;;;;19.77;68.23;102117.19;5082345;28;20028;-48
2022/08/30 07:41:45;;;;;;;5.47;4.90;;;;;;;19.83;68.07;102124.19;5073736;28;20131;-46
2022/08/30 07:44:11;;;;;;;5.47;4.60;;;;;;;19.93;67.43;102125.19;5078466;28;20374;-50
2022/08/30 07:46:37;;;;;;;7.40;4.40;;;;;;;20.03;66.96;102122.66;5074120;28;20027;-47
2022/08/30 07:49:03;;;;;;;6.28;4.30;;;;;;;20.05;67.02;102118.31;5071383;28;20465;-50
2022/08/30 07:51:29;;;;;;;6.07;4.13;;;;;;;20.12;67.14;102118.38;5073755;28;20032;-48
2022/08/30 07:53:56;;;;;;;5.00;3.90;;;;;;;20.18;67.05;102123.66;5077635;28;20055;-46
2022/08/30 07:56:23;;;;;;;6.95;4.07;;;;;;;20.24;65.97;102123.72;5075479;28;20055;-49
2022/08/30 07:58:48;;;;;;;5.18;3.55;;;;;;;20.28;65.03;102128.09;5074831;28;20051;-50
2022/08/30 08:01:14;;;;;;;7.13;3.50;;;;;;;20.29;65.12;102122.88;5080156;28;20504;-50
2022/08/30 08:03:41;;;;;;;6.13;3.58;;;;;;;20.35;65.46;102127.28;5075425;28;20032;-44
2022/08/30 08:06:09;;;;;;;8.25;3.67;;;;;;;20.35;65.05;102122.94;5074956;28;20020;-49
2022/08/30 08:08:36;;;;;;;8.43;3.50;;;;;;;20.35;64.54;102119.44;5075344;28;20485;-50
2022/08/30 08:11:21;;;;;;;4.78;3.22;;;;;;;20.43;64.80;102120.38;5075846;28;20039;-48
2022/08/30 08:13:48;;;;;;;7.68;3.22;;;;;;;20.40;64.30;102122.97;5075759;28;20610;-51
2022/08/30 08:16:14;;;;;;;6.55;2.97;;;;;;;20.42;64.03;102121.22;5075491;28;20483;-50
2022/08/30 08:18:39;;;;;;;7.13;2.90;;;;;;;20.48;63.66;102131.75;5074403;28;20028;-50
2022/08/30 08:21:04;;;;;;;4.97;2.65;;;;;;;20.55;62.98;102130.06;5073906;28;20444;-50
2022/08/30 08:23:30;;;;;;;6.78;2.80;;;;;;;20.57;62.59;102131.84;5078540;28;20028;-50
2022/08/30 08:25:55;;;;;;;5.10;2.70;;;;;;;20.51;62.31;102123.97;5077316;28;20068;-50
2022/08/30 08:28:21;;;;;;;3.95;2.53;;;;;;;20.60;62.30;102128.38;5079758;28;20404;-48
2022/08/30 08:30:48;;;;;;;5.72;2.78;;;;;;;20.68;61.91;102136.25;5072497;28;20091;-46
2022/08/30 08:33:15;;;;;;;5.03;2.70;;;;;;;20.70;61.45;102130.19;5077615;28;20232;-50
2022/08/30 08:35:41;;;;;;;5.25;2.70;;;;;;;20.72;60.95;102131.06;5071550;28;20036;-49
2022/08/30 08:38:07;;;;;;;4.50;2.60;;;;;;;20.77;60.84;102131.97;5077003;28;20493;-48
2022/08/30 08:40:53;;;;;;;4.78;2.60;;;;;;;20.85;60.98;102139.84;5072195;28;20020;-49
2022/08/30 08:43:21;;;;;;;4.25;2.60;;;;;;;20.88;60.33;102140.75;5069040;28;20021;-49
2022/08/30 08:45:58;;;;;;;6.43;2.60;;;;;;;20.89;60.50;102141.63;5071466;28;20389;-49
2022/08/30 08:48:40;;;;;;;5.88;2.78;;;;;;;20.91;60.24;102136.41;5075568;28;20293;-50
2022/08/30 08:53:59;;;;;;;3.50;2.35;;;;;;;20.91;60.10;102137.25;5075184;28;20066;-49
2022/08/30 08:56:25;;;;;;;4.97;2.58;;;;;;;20.98;59.67;102135.56;5077142;28;20135;-50
2022/08/30 08:58:54;;;;;;;4.63;2.35;;;;;;;21.02;59.28;102138.19;5074280;28;20128;-50
2022/08/30 09:01:23;;;;;;;5.85;2.80;;;;;;;21.09;59.56;102141.72;5075802;28;20095;-50
2022/08/30 09:03:49;;;;;;;4.18;2.60;;;;;;;21.17;59.33;102145.22;5075985;28;20046;-50
2022/08/30 09:06:30;;;;;;;5.03;2.30;;;;;;;21.22;59.07;102148.75;5075105;28;20551;-49
2022/08/30 09:08:55;;;;;;;7.10;2.33;;;;;;;21.29;59.15;102147.06;5078270;28;20030;-50
2022/08/30 09:11:26;;;;;;;6.13;2.28;;;;;;;21.35;58.56;102149.72;5072759;28;20028;-50
2022/08/30 09:13:53;;;;;;;3.97;2.30;;;;;;;21.38;58.51;102149.72;5073451;28;20043;-50
2022/08/30 09:17:03;;;;;;;5.15;2.20;;;;;;;21.44;58.42;102144.53;5081335;28;20027;-49
2022/08/30 09:19:33;;;;;;;2.70;2.08;;;;;;;21.54;57.87;102142.81;5064959;28;20068;-49
2022/08/30 09:22:10;;;;;;;4.22;2.10;;;;;;;21.57;57.70;102134.97;5073459;28;20020;-46
2022/08/30 09:24:45;;;;;;;4.32;1.80;;;;;;;21.61;57.42;102139.34;5080222;28;20484;-49
2022/08/30 09:27:26;;;;;;;7.93;1.95;;;;;;;21.66;57.51;102137.63;5071033;28;20024;-49
2022/08/30 09:30:25;;;;;;;4.63;1.70;;;;;;;21.68;57.50;102136.75;5072317;28;20110;-49
2022/08/30 09:32:58;;;;;;;3.08;1.90;;;;;;;21.68;56.84;102146.34;5036023;28;20796;-47
2022/08/30 09:35:36;;;;;;;4.10;1.77;;;;;;;21.68;56.81;102149.84;5078832;28;20028;-49
2022/08/30 09:38:07;;;;;;;4.85;2.22;;;;;;;21.71;56.07;102143.72;5077180;28;20453;-48
2022/08/30 09:40:38;;;;;;;3.60;1.77;;;;;;;21.67;55.64;102147.22;5073478;28;20028;-45
2022/08/30 09:43:06;;;;;;;3.22;1.70;;;;;;;21.65;55.53;102147.19;5075008;28;20035;-50
2022/08/30 09:45:38;;;;;;;4.38;1.60;;;;;;;21.74;55.49;102145.47;5078243;28;20417;-47
2022/08/30 09:48:25;;;;;;;5.68;1.60;;;;;;;21.82;55.75;102144.63;5072392;28;20088;-49
2022/08/30 09:51:00;;;;;;;5.03;1.55;;;;;;;21.87;55.25;102140.25;5072262;28;20028;-50
2022/08/30 09:53:33;;;;;;;4.93;1.50;;;;;;;21.98;55.01;102134.19;5069605;28;20032;-47
2022/08/30 09:56:10;;;;;;;7.15;1.90;;;;;;;22.00;54.36;102140.28;5069386;28;20039;-49
2022/08/30 09:58:52;;;;;;;4.38;1.58;;;;;;;22.09;55.02;102128.13;5069707;28;20069;-49
2022/08/30 10:01:25;;;;;;;5.40;1.65;;;;;;;22.12;53.85;102133.34;5076170;28;20721;-50
2022/08/30 10:04:17;;;;;;;2.80;1.60;;;;;;;22.18;53.69;102132.47;5074937;28;20135;-50
2022/08/30 10:06:53;;;;;;;3.50;1.63;;;;;;;22.22;54.53;102139.47;5076137;28;20043;-50
2022/08/30 10:09:40;;;;;;;6.53;1.70;;;;;;;22.26;54.52;102135.94;5074292;28;20481;-51
2022/08/30 10:12:21;;;;;;;5.60;1.52;;;;;;;22.24;53.64;102139.47;5074020;28;20024;-48
2022/08/30 10:14:55;;;;;;;6.68;1.45;;;;;;;22.23;53.40;102140.34;5070674;28;20040;-49
2022/08/30 10:17:39;;;;;;;3.80;1.50;;;;;;;22.21;53.24;102137.72;5073922;28;22538;-49
2022/08/30 10:20:32;;;;;;;3.50;1.45;;;;;;;22.22;53.12;102139.47;5071778;28;20126;-45
2022/08/30 10:23:21;;;;;;;5.80;1.30;;;;;;;22.30;53.64;102135.09;5072737;28;20401;-49
2022/08/30 10:25:54;;;;;;;3.08;1.60;;;;;;;22.41;53.52;102135.97;5071118;28;20043;-48
2022/08/30 10:28:32;;;;;;;2.83;1.23;;;;;;;22.59;53.02;102134.19;5075850;28;20022;-50
2022/08/30 10:31:10;;;;;;;5.13;1.30;;;;;;;22.72;52.21;102131.53;5072665;28;20028;-50
2022/08/30 10:33:41;;;;;;;4.80;1.45;;;;;;;22.86;50.72;102133.25;5072795;28;20024;-47
2022/08/30 10:36:10;;;;;;;3.63;1.50;;;;;;;22.99;50.77;102132.38;5072338;28;20032;-46
2022/08/30 10:38:39;;;;;;;3.28;1.38;;;;;;;23.11;51.24;102121.81;5071500;28;20031;-47
2022/08/30 10:41:30;;;;;;;4.45;1.20;;;;;;;23.26;51.08;102127.03;5077251;28;20666;-51
2022/08/30 10:44:20;;;;;;;6.45;1.38;;;;;;;23.39;50.43;102124.34;5076013;28;20052;-50
2022/08/30 10:47:03;;;;;;;7.57;1.40;;;;;;;23.51;49.64;102119.91;5069635;28;20040;-47
2022/08/30 10:49:53;;;;;;;3.15;1.40;;;;;;;23.64;48.51;102125.09;5071301;28;20028;-50
2022/08/30 10:52:34;;;;;;;7.45;1.50;;;;;;;23.70;48.02;102115.44;5068496;28;20114;-49
2022/08/30 10:55:10;;;;;;;5.50;1.40;;;;;;;23.78;48.22;102118.00;5064565;28;20074;-47
2022/08/30 10:57:36;;;;;;;6.40;1.40;;;;;;;23.94;47.87;102114.38;5072034;28;20041;-50
2022/08/30 11:00:14;;;;;;;5.05;1.50;;;;;;;24.08;48.26;102112.50;5070850;28;20032;-49
2022/08/30 11:03:09;;;;;;;3.50;1.58;;;;;;;24.28;47.73;102120.25;5070450;28;20507;-50
2022/08/30 11:06:00;;;;;;;3.55;1.60;;;;;;;24.36;46.90;102114.94;5071155;28;20161;-50
2022/08/30 11:08:48;;;;;;;4.63;1.55;;;;;;;24.43;45.88;102115.75;5076043;28;20076;-51
2022/08/30 11:11:31;;;;;;;;;;;;;;;24.51;46.23;102119.19;5074363;28;20069;-49
2022/08/30 11:14:03;;;;;;;1.75;1.38;;;;;;;24.47;45.81;102110.47;5078714;28;19926;-50
2022/08/30 11:16:36;;;;;;;3.30;1.60;;;;;;;24.62;45.95;102109.41;5073010;28;20023;-50
2022/08/30 11:19:01;;;;;;;2.60;1.30;;;;;;;24.70;45.50;102106.72;5070194;28;20037;-50
2022/08/30 11:21:34;;;;;;;5.82;1.40;;;;;;;24.69;46.12;102107.59;5068324;28;20047;-49
2022/08/30 11:24:16;;;;;;;7.68;1.42;;;;;;;24.63;45.66;102110.28;5062796;28;20412;-50
2022/08/30 11:26:45;;;;;;;5.35;1.45;;;;;;;24.61;45.49;102107.69;5071470;28;20430;-46
2022/08/30 11:29:29;;;;;;;3.60;1.50;;;;;;;24.74;45.59;102111.91;5063487;28;20036;-47
2022/08/30 11:31:56;;;;;;;4.95;1.42;;;;;;;24.82;45.08;102109.22;5070665;28;20031;-51
2022/08/30 11:34:43;;;;;;;5.30;1.27;;;;;;;24.91;45.29;102109.09;5067684;28;20162;-49
2022/08/30 11:37:28;;;;;;;5.20;1.77;;;;;;;24.92;43.86;102107.34;5069392;28;20026;-50
2022/08/30 11:40:05;;;;;;;5.65;1.70;;;;;;;24.85;44.06;102107.41;5071068;28;20075;-50
2022/08/30 11:42:35;;;;;;;3.95;1.40;;;;;;;24.77;43.95;102098.75;5071884;28;20115;-50